Time;durP1;ratioP1;P1;durP2;ratioP2;P2;SDS_P1;SDS_P2;PMS_P1;PMS_P2;Temp;Humidity;BMP_temperature;BMP_pressure;BME280_temperature;BME280_humidity;BME280_pressure;Samples;Min_cycle;Max_cycle;Signal;HPM_P1;HPM_P2
2023/12/15 00:00:00;;;;;;;28.92;16.95;;;;;;;1.34;100.00;102353.34;4984801;28;20203;-42
2023/12/15 00:02:26;;;;;;;27.08;16.73;;;;;;;1.36;100.00;102363.97;4983796;28;20213;-42
2023/12/15 00:04:52;;;;;;;26.75;15.48;;;;;;;1.35;100.00;102357.75;4982888;28;20188;-41
2023/12/15 00:07:17;;;;;;;31.33;17.13;;;;;;;1.33;100.00;102367.38;4975667;28;20296;-42
2023/12/15 00:09:43;;;;;;;31.77;16.70;;;;;;;1.34;100.00;102360.38;4979077;28;20208;-42
2023/12/15 00:12:08;;;;;;;29.05;15.80;;;;;;;1.33;100.00;102366.50;4980119;28;20225;-42
2023/12/15 00:14:34;;;;;;;27.38;16.10;;;;;;;1.35;100.00;102362.16;4985912;28;20193;-43
2023/12/15 00:16:59;;;;;;;26.95;16.02;;;;;;;1.31;100.00;102365.56;4978794;28;20199;-43
2023/12/15 00:19:25;;;;;;;27.70;15.57;;;;;;;1.31;100.00;102374.41;4980868;28;20194;-42
2023/12/15 00:21:50;;;;;;;30.83;16.67;;;;;;;1.32;100.00;102368.25;4977092;28;20214;-42
2023/12/15 00:24:16;;;;;;;30.30;15.45;;;;;;;1.33;100.00;102369.16;4980650;28;20559;-43
2023/12/15 00:26:41;;;;;;;25.55;16.23;;;;;;;1.32;100.00;102377.94;4979128;28;20213;-43
2023/12/15 00:29:06;;;;;;;27.45;15.90;;;;;;;1.33;100.00;102371.78;4976814;28;20389;-42
2023/12/15 00:31:32;;;;;;;28.02;15.30;;;;;;;1.31;100.00;102374.41;4986813;28;20194;-43
2023/12/15 00:33:58;;;;;;;32.38;16.88;;;;;;;1.31;100.00;102381.41;4985284;28;20734;-42
2023/12/15 00:36:23;;;;;;;31.45;16.67;;;;;;;1.33;100.00;102385.00;4985067;28;20558;-41
2023/12/15 00:38:49;;;;;;;32.30;16.73;;;;;;;1.31;100.00;102384.97;4983649;28;20319;-43
2023/12/15 00:41:14;;;;;;;27.35;15.65;;;;;;;1.35;100.00;102386.81;4988310;28;20209;-42
2023/12/15 00:43:40;;;;;;;28.02;16.65;;;;;;;1.35;100.00;102386.81;4983794;28;20196;-42
2023/12/15 00:46:05;;;;;;;27.63;16.90;;;;;;;1.36;100.00;102390.38;4999489;28;20185;-42
2023/12/15 00:48:31;;;;;;;29.48;16.55;;;;;;;1.36;100.00;102391.25;4986831;28;20648;-43
2023/12/15 00:50:56;;;;;;;32.72;16.73;;;;;;;1.36;100.00;102400.94;4983672;28;20209;-42
2023/12/15 00:53:22;;;;;;;29.48;16.10;;;;;;;1.36;100.00;102396.53;4982951;28;20182;-43
2023/12/15 00:55:47;;;;;;;26.48;16.17;;;;;;;1.34;100.00;102395.59;4982623;28;20222;-43
2023/12/15 00:58:16;;;;;;;27.08;16.55;;;;;;;1.34;100.00;102394.72;4981124;28;20189;-43
2023/12/15 01:00:41;;;;;;;26.55;15.77;;;;;;;1.28;100.00;102392.81;4985077;28;20235;-42
2023/12/15 01:03:07;;;;;;;30.48;17.52;;;;;;;1.30;100.00;102396.38;4982845;28;20659;-42
2023/12/15 01:05:32;;;;;;;32.72;17.83;;;;;;;1.33;100.00;102387.63;4985333;28;20284;-42
2023/12/15 01:07:58;;;;;;;27.90;15.18;;;;;;;1.32;100.00;102396.41;4985205;28;20651;-42
2023/12/15 01:10:23;;;;;;;29.27;16.63;;;;;;;1.31;100.00;102386.69;4984657;28;20173;-42
2023/12/15 01:12:49;;;;;;;23.73;15.35;;;;;;;1.34;100.00;102406.16;4988504;28;20193;-43
2023/12/15 01:15:14;;;;;;;29.10;16.30;;;;;;;1.34;100.00;102403.53;4985855;28;20185;-42
2023/12/15 01:17:40;;;;;;;27.60;15.55;;;;;;;1.38;100.00;102407.16;4980808;28;20674;-42
2023/12/15 01:20:06;;;;;;;27.90;16.05;;;;;;;1.38;100.00;102410.66;4982268;28;20655;-43
2023/12/15 01:22:31;;;;;;;29.63;17.17;;;;;;;1.41;100.00;102401.91;4985841;28;20201;-43
2023/12/15 01:24:57;;;;;;;30.58;17.88;;;;;;;1.42;100.00;102416.91;4983853;28;20668;-42
2023/12/15 01:27:23;;;;;;;30.65;16.40;;;;;;;1.49;100.00;102408.28;4988536;28;20228;-42
2023/12/15 01:29:48;;;;;;;33.13;17.00;;;;;;;1.50;100.00;102411.81;4990758;28;20264;-43
2023/12/15 01:32:14;;;;;;;30.60;16.55;;;;;;;1.51;100.00;102413.59;4985042;28;20214;-42
2023/12/15 01:34:39;;;;;;;39.28;18.15;;;;;;;1.53;100.00;102419.81;4984715;28;20193;-43
2023/12/15 01:37:05;;;;;;;29.95;17.88;;;;;;;1.57;100.00;102425.19;4982027;28;20229;-42
2023/12/15 01:39:30;;;;;;;34.03;18.23;;;;;;;1.61;100.00;102436.75;4979958;28;20185;-42
2023/12/15 01:41:56;;;;;;;31.92;18.20;;;;;;;1.64;100.00;102421.00;4983519;28;20199;-43
2023/12/15 01:44:21;;;;;;;30.50;16.65;;;;;;;1.63;100.00;102433.28;4982885;28;20624;-42
2023/12/15 01:46:47;;;;;;;38.22;19.08;;;;;;;1.65;100.00;102425.41;4984623;28;20204;-43
2023/12/15 01:49:12;;;;;;;30.35;17.90;;;;;;;1.67;100.00;102430.75;4984578;28;20572;-43
2023/12/15 01:51:38;;;;;;;32.10;17.65;;;;;;;1.66;100.00;102437.75;4983277;28;20742;-43
2023/12/15 01:54:03;;;;;;;29.60;17.20;;;;;;;1.70;100.00;102434.31;4982178;28;20201;-42
2023/12/15 01:56:29;;;;;;;33.08;17.20;;;;;;;1.70;100.00;102436.06;4984519;28;20597;-42
2023/12/15 01:58:54;;;;;;;33.17;17.77;;;;;;;1.69;100.00;102439.59;4983064;28;20648;-43
2023/12/15 02:01:20;;;;;;;35.17;18.40;;;;;;;1.71;100.00;102435.25;4996245;28;20308;-43
2023/12/15 02:03:45;;;;;;;35.63;19.02;;;;;;;1.70;100.00;102438.72;4986428;28;20235;-42
2023/12/15 02:06:11;;;;;;;34.22;18.42;;;;;;;1.73;100.00;102433.50;4985469;28;20550;-42
2023/12/15 02:08:36;;;;;;;30.33;17.90;;;;;;;1.74;100.00;102430.91;4977642;28;20277;-42
2023/12/15 02:11:02;;;;;;;34.53;18.45;;;;;;;1.76;100.00;102433.59;4980536;28;20302;-42
2023/12/15 02:13:28;;;;;;;31.80;18.00;;;;;;;1.77;100.00;102427.44;4981262;28;20210;-43
2023/12/15 02:15:54;;;;;;;33.03;18.02;;;;;;;1.79;100.00;102426.63;4985264;28;20592;-43
2023/12/15 02:18:19;;;;;;;35.88;19.15;;;;;;;1.79;100.00;102431.00;4983305;28;20528;-42
2023/12/15 02:20:44;;;;;;;34.88;18.23;;;;;;;1.78;100.00;102429.25;4983087;28;20287;-43
2023/12/15 02:23:10;;;;;;;35.40;18.92;;;;;;;1.83;100.00;102430.22;4976159;28;20262;-43
2023/12/15 02:25:35;;;;;;;37.13;19.90;;;;;;;1.80;100.00;102430.16;4978255;28;20464;-43
2023/12/15 02:28:01;;;;;;;39.50;20.23;;;;;;;1.81;100.00;102432.81;4979826;28;20228;-42
2023/12/15 02:30:26;;;;;;;31.98;18.45;;;;;;;1.80;100.00;102428.41;4982928;28;20458;-43
2023/12/15 02:32:52;;;;;;;34.40;18.20;;;;;;;1.84;100.00;102424.09;4983203;28;20193;-42
2023/12/15 02:35:17;;;;;;;31.42;18.27;;;;;;;1.86;100.00;102427.69;4982636;28;20193;-41
2023/12/15 02:37:43;;;;;;;37.58;18.92;;;;;;;1.84;100.00;102432.91;4979549;28;20269;-43
2023/12/15 02:40:08;;;;;;;37.03;18.65;;;;;;;1.87;100.00;102436.50;4985212;28;20582;-43
2023/12/15 02:42:34;;;;;;;37.75;20.40;;;;;;;1.90;100.00;102434.78;4983895;28;20271;-42
2023/12/15 02:45:00;;;;;;;36.25;18.92;;;;;;;1.95;100.00;102427.88;4982768;28;20273;-42
2023/12/15 02:47:26;;;;;;;36.42;19.23;;;;;;;1.91;100.00;102425.13;4981676;28;20205;-42
2023/12/15 02:49:54;;;;;;;39.67;19.33;;;;;;;1.92;100.00;102430.44;4984668;28;20174;-42
2023/12/15 02:52:20;;;;;;;39.42;19.05;;;;;;;1.95;100.00;102425.25;4977852;28;20197;-42
2023/12/15 02:54:45;;;;;;;41.75;21.23;;;;;;;1.95;100.00;102438.47;4979158;28;20232;-42
2023/12/15 02:57:11;;;;;;;32.53;18.48;;;;;;;1.97;100.00;102426.16;4984126;28;20582;-43
2023/12/15 02:59:36;;;;;;;34.33;19.40;;;;;;;2.01;100.00;102435.03;4987517;28;20185;-42
2023/12/15 03:02:02;;;;;;;31.38;18.27;;;;;;;2.02;100.00;102431.56;4981388;28;20198;-42
2023/12/15 03:04:27;;;;;;;34.40;18.17;;;;;;;2.03;100.00;102430.69;4978575;28;20182;-43
2023/12/15 03:06:55;;;;;;;33.17;19.15;;;;;;;2.06;100.00;102433.41;4981767;28;20710;-44
2023/12/15 03:09:20;;;;;;;36.10;19.55;;;;;;;2.10;100.00;102440.56;4980638;28;20205;-42
2023/12/15 03:11:46;;;;;;;37.05;19.83;;;;;;;2.11;100.00;102430.88;4982152;28;20206;-42
2023/12/15 03:14:11;;;;;;;33.13;18.52;;;;;;;2.14;100.00;102430.94;4985219;28;20171;-43
2023/12/15 03:16:37;;;;;;;34.78;19.13;;;;;;;2.13;100.00;102431.81;4980931;28;20709;-42
2023/12/15 03:19:03;;;;;;;36.65;19.35;;;;;;;2.14;100.00;102423.88;4983619;28;20732;-43
2023/12/15 03:21:28;;;;;;;32.75;18.48;;;;;;;2.14;100.00;102420.34;4981452;28;20539;-43
2023/12/15 03:23:54;;;;;;;36.53;19.77;;;;;;;2.18;100.00;102430.13;4982366;28;20196;-42
2023/12/15 03:26:19;;;;;;;40.03;19.35;;;;;;;2.17;100.00;102416.03;4982635;28;20170;-43
2023/12/15 03:28:44;;;;;;;34.22;19.13;;;;;;;2.19;100.00;102411.69;4982952;28;20493;-42
2023/12/15 03:31:10;;;;;;;32.92;18.88;;;;;;;2.21;100.00;102409.06;4984950;28;20288;-43
2023/12/15 03:33:36;;;;;;;32.33;19.23;;;;;;;2.18;100.00;102406.34;4980106;28;20253;-43
2023/12/15 03:36:03;;;;;;;33.53;18.70;;;;;;;2.17;100.00;102404.56;4983412;28;20522;-43
2023/12/15 03:38:28;;;;;;;40.03;19.48;;;;;;;2.18;100.00;102407.22;4982723;28;20629;-42
2023/12/15 03:40:54;;;;;;;39.00;19.70;;;;;;;2.16;100.00;102411.59;4982018;28;20236;-42
2023/12/15 03:43:19;;;;;;;34.03;18.90;;;;;;;2.19;100.00;102402.84;4980467;28;20184;-42
2023/12/15 03:45:45;;;;;;;36.67;19.17;;;;;;;2.17;100.00;102404.56;4982173;28;20524;-43
2023/12/15 03:48:10;;;;;;;35.05;19.42;;;;;;;2.15;100.00;102401.88;4984370;28;20205;-42
2023/12/15 03:50:35;;;;;;;38.97;19.08;;;;;;;2.16;100.00;102398.38;4979960;28;20190;-42
2023/12/15 03:53:01;;;;;;;37.83;19.63;;;;;;;2.14;100.00;102399.19;4980411;28;20571;-43
2023/12/15 03:55:26;;;;;;;38.45;19.13;;;;;;;2.15;100.00;102406.28;4980479;28;20452;-42
2023/12/15 03:57:52;;;;;;;37.60;19.48;;;;;;;2.17;100.00;102420.44;4983253;28;20171;-43
2023/12/15 04:00:18;;;;;;;35.28;19.50;;;;;;;2.19;100.00;102430.19;4991586;28;20190;-43
2023/12/15 04:02:44;;;;;;;33.53;18.30;;;;;;;2.21;100.00;102419.66;4981891;28;20201;-42
2023/12/15 04:05:10;;;;;;;33.03;18.33;;;;;;;2.25;100.00;102438.25;4979251;28;20554;-43
2023/12/15 04:07:36;;;;;;;42.63;20.42;;;;;;;2.28;100.00;102433.91;4980867;28;20213;-44
2023/12/15 04:10:01;;;;;;;36.63;19.60;;;;;;;2.31;100.00;102456.00;4981704;28;20707;-43
2023/12/15 04:12:27;;;;;;;36.00;18.95;;;;;;;2.34;100.00;102457.81;4977504;28;20193;-43
2023/12/15 04:14:52;;;;;;;35.30;19.02;;;;;;;2.37;100.00;102453.50;4981029;28;20197;-43
2023/12/15 04:17:18;;;;;;;37.67;20.13;;;;;;;2.45;100.00;102457.19;4980936;28;20178;-42
2023/12/15 04:19:43;;;;;;;40.58;20.50;;;;;;;2.46;100.00;102466.03;4983532;28;20188;-42
2023/12/15 04:22:09;;;;;;;40.75;20.65;;;;;;;2.45;100.00;102466.91;4980005;28;20218;-42
2023/12/15 04:24:34;;;;;;;41.13;20.10;;;;;;;2.47;100.00;102452.84;4981263;28;20181;-42
2023/12/15 04:26:59;;;;;;;41.38;20.50;;;;;;;2.48;100.00;102465.19;4983303;28;20273;-41
2023/12/15 04:29:25;;;;;;;41.05;21.05;;;;;;;2.54;100.00;102464.44;4979048;28;20658;-41
2023/12/15 04:31:51;;;;;;;46.78;21.95;;;;;;;2.56;100.00;102464.44;4977184;28;20553;-42
2023/12/15 04:34:16;;;;;;;42.22;21.88;;;;;;;2.59;100.00;102459.25;4977953;28;20181;-43
2023/12/15 04:36:42;;;;;;;43.95;21.27;;;;;;;2.63;100.00;102464.63;4978372;28;20228;-43
2023/12/15 04:39:07;;;;;;;37.97;21.20;;;;;;;2.68;100.00;102472.66;4981572;28;20177;-42
2023/12/15 04:41:33;;;;;;;42.08;22.10;;;;;;;2.68;100.00;102488.53;4979139;28;20293;-42
2023/12/15 04:43:58;;;;;;;47.13;22.90;;;;;;;2.67;100.00;102492.06;4977242;28;20181;-42
2023/12/15 04:46:31;;;;;;;40.20;21.30;;;;;;;2.73;100.00;102507.16;4988113;28;20192;-43
2023/12/15 04:48:59;;;;;;;45.63;22.15;;;;;;;2.73;100.00;102512.44;4980794;28;20185;-42
2023/12/15 04:51:25;;;;;;;41.70;20.98;;;;;;;2.73;100.00;102510.69;4979158;28;20795;-42
2023/12/15 04:53:51;;;;;;;43.95;21.60;;;;;;;2.75;100.00;102522.19;4985413;28;20279;-43
2023/12/15 04:56:17;;;;;;;45.33;21.40;;;;;;;2.78;100.00;102526.69;4983386;28;20573;-43
2023/12/15 04:58:43;;;;;;;49.45;21.60;;;;;;;2.79;100.00;102531.13;4982387;28;20663;-42
2023/12/15 05:01:12;;;;;;;42.95;20.92;;;;;;;2.85;100.00;102533.91;4979557;28;20324;-43
2023/12/15 05:03:42;;;;;;;39.53;20.60;;;;;;;2.86;100.00;102533.94;4983205;28;20241;-41
2023/12/15 05:06:18;;;;;;;48.58;22.30;;;;;;;2.83;100.00;102528.56;4981946;28;20182;-42
2023/12/15 05:08:45;;;;;;;41.00;21.20;;;;;;;2.85;100.00;102529.47;5018068;22;20607;-44
2023/12/15 05:11:10;;;;;;;46.75;22.35;;;;;;;2.86;100.00;102515.41;5008194;28;20262;-41
2023/12/15 05:13:36;;;;;;;47.50;20.85;;;;;;;2.87;100.00;102521.59;5000789;28;20356;-41
2023/12/15 05:16:02;;;;;;;44.60;19.83;;;;;;;2.91;100.00;102531.38;5003238;28;20181;-44
2023/12/15 05:18:27;;;;;;;42.00;20.83;;;;;;;2.90;100.00;102524.28;5004080;28;20173;-40
2023/12/15 05:20:53;;;;;;;44.10;20.88;;;;;;;2.94;100.00;102538.50;5004480;28;20259;-45
2023/12/15 05:23:18;;;;;;;45.83;21.15;;;;;;;2.92;100.00;102535.81;5000024;28;20187;-43
2023/12/15 05:25:43;;;;;;;44.60;20.60;;;;;;;2.96;100.00;102531.47;5004867;28;20216;-42
2023/12/15 05:28:09;;;;;;;47.83;21.02;;;;;;;2.94;100.00;102520.84;5006464;28;20279;-44
2023/12/15 05:30:34;;;;;;;46.75;21.88;;;;;;;2.98;100.00;102519.16;5005382;28;20197;-43
2023/12/15 05:33:00;;;;;;;50.63;21.30;;;;;;;2.98;100.00;102521.81;5005282;28;20247;-43
2023/12/15 05:35:26;;;;;;;44.90;21.10;;;;;;;2.98;100.00;102528.00;5007615;28;20593;-42
2023/12/15 05:37:52;;;;;;;51.03;22.80;;;;;;;3.01;100.00;102525.38;5003731;28;20196;-41
2023/12/15 05:40:17;;;;;;;48.70;21.45;;;;;;;3.06;100.00;102522.84;5008735;28;20309;-42
2023/12/15 05:42:43;;;;;;;49.85;21.42;;;;;;;3.08;100.00;102521.09;5000028;28;20240;-42
2023/12/15 05:45:08;;;;;;;50.80;22.52;;;;;;;3.08;100.00;102516.72;5004970;28;20673;-41
2023/12/15 05:47:39;;;;;;;55.20;21.90;;;;;;;3.09;100.00;102520.25;4994798;28;20659;-43
2023/12/15 05:50:05;;;;;;;55.53;22.83;;;;;;;3.12;100.00;102540.59;5000499;28;20196;-42
2023/12/15 05:52:31;;;;;;;57.55;23.02;;;;;;;3.12;100.00;102528.25;5002562;28;20287;-40
2023/12/15 05:54:57;;;;;;;48.95;21.73;;;;;;;3.14;100.00;102541.53;4999466;28;20324;-41
2023/12/15 05:57:22;;;;;;;47.90;20.95;;;;;;;3.15;100.00;102544.22;5002183;28;20181;-43
2023/12/15 05:59:48;;;;;;;56.92;22.25;;;;;;;3.16;100.00;102542.47;5003190;28;20833;-43
2023/12/15 06:02:13;;;;;;;56.60;23.75;;;;;;;3.15;100.00;102546.88;5002629;28;20188;-43
2023/12/15 06:04:39;;;;;;;60.38;23.55;;;;;;;3.16;100.00;102539.81;5018403;28;20224;-41
2023/12/15 06:07:04;;;;;;;66.55;23.55;;;;;;;3.17;100.00;102547.81;5005185;28;20208;-41
2023/12/15 06:09:29;;;;;;;58.70;22.85;;;;;;;3.19;100.00;102545.16;5006343;28;20271;-42
2023/12/15 06:11:55;;;;;;;59.70;23.50;;;;;;;3.19;100.00;102542.50;4999292;28;20706;-42
2023/12/15 06:14:20;;;;;;;58.53;24.27;;;;;;;3.20;100.00;102545.19;5003491;28;20596;-43
2023/12/15 06:16:47;;;;;;;68.00;24.33;;;;;;;3.23;100.00;102547.00;5005433;28;20260;-43
2023/12/15 06:19:13;;;;;;;63.95;23.23;;;;;;;3.26;100.00;102553.28;5004523;28;20239;-43
2023/12/15 06:21:38;;;;;;;64.32;24.33;;;;;;;3.26;100.00;102552.38;5002543;28;20288;-43
2023/12/15 06:24:04;;;;;;;68.22;24.52;;;;;;;3.30;100.00;102559.50;5002631;28;20188;-42
2023/12/15 06:26:30;;;;;;;66.07;25.58;;;;;;;3.32;100.00;102560.44;5000076;28;20348;-41
2023/12/15 06:28:55;;;;;;;69.10;25.40;;;;;;;3.32;100.00;102560.44;5005005;28;20215;-41
2023/12/15 06:31:21;;;;;;;69.32;26.27;;;;;;;3.32;100.00;102564.84;5002007;28;20362;-41
2023/12/15 06:33:47;;;;;;;75.32;25.98;;;;;;;3.34;100.00;102577.25;5002816;28;20192;-43
2023/12/15 06:36:12;;;;;;;80.43;26.65;;;;;;;3.35;100.00;102576.41;5001955;28;20184;-42
2023/12/15 06:38:42;;;;;;;69.00;25.65;;;;;;;3.34;100.00;102576.38;5003233;28;20180;-44
2023/12/15 06:41:09;;;;;;;78.05;28.05;;;;;;;3.34;100.00;102576.38;5004777;28;20288;-41
2023/12/15 06:43:38;;;;;;;84.97;28.05;;;;;;;3.38;100.00;102576.44;5004189;28;20170;-43
2023/12/15 06:46:04;;;;;;;75.82;26.27;;;;;;;3.37;100.00;102571.13;5005876;28;20551;-42
2023/12/15 06:48:29;;;;;;;86.22;27.42;;;;;;;3.38;100.00;102576.44;5005051;28;20236;-44
2023/12/15 06:50:55;;;;;;;85.30;26.45;;;;;;;3.42;100.00;102582.72;5002411;28;20219;-44
2023/12/15 06:53:21;;;;;;;84.70;29.38;;;;;;;3.42;100.00;102590.66;5001263;28;20738;-43
2023/12/15 06:55:46;;;;;;;80.20;26.85;;;;;;;3.44;100.00;102588.94;5003569;28;20280;-41
2023/12/15 06:58:12;;;;;;;81.22;26.92;;;;;;;3.45;100.00;102598.66;5005563;28;20659;-44
2023/12/15 07:00:39;;;;;;;89.60;26.75;;;;;;;3.45;100.00;102594.25;5002722;28;20227;-44
2023/12/15 07:03:05;;;;;;;76.97;25.35;;;;;;;3.48;100.00;102602.28;4999607;28;20706;-42
2023/12/15 07:05:30;;;;;;;89.80;27.17;;;;;;;3.46;100.00;102600.47;5003061;28;20267;-44
2023/12/15 07:07:56;;;;;;;82.93;27.23;;;;;;;3.50;100.00;102607.63;4995444;28;20201;-43
2023/12/15 07:10:22;;;;;;;81.68;27.23;;;;;;;3.51;100.00;102609.38;5003108;28;20186;-42
2023/12/15 07:12:48;;;;;;;90.57;27.00;;;;;;;3.49;100.00;102619.06;4998163;28;20197;-43
2023/12/15 07:15:15;;;;;;;76.68;25.90;;;;;;;3.51;100.00;102620.88;5002206;28;20192;-41
2023/12/15 07:17:41;;;;;;;79.97;26.88;;;;;;;3.58;100.00;102618.34;5006200;28;20268;-40
2023/12/15 07:20:08;;;;;;;75.47;26.05;;;;;;;3.55;100.00;102629.78;5004378;28;20189;-43
2023/12/15 07:22:34;;;;;;;95.82;27.05;;;;;;;3.57;100.00;102625.41;4997172;28;20228;-43
2023/12/15 07:25:00;;;;;;;91.25;27.73;;;;;;;3.61;100.00;102648.47;5005273;28;20230;-41
2023/12/15 07:27:25;;;;;;;86.70;26.80;;;;;;;3.62;100.00;102652.00;4999483;28;20213;-42
2023/12/15 07:29:52;;;;;;;88.15;26.45;;;;;;;3.64;100.00;102639.69;5003407;28;20245;-43
2023/12/15 07:32:18;;;;;;;90.63;26.88;;;;;;;3.66;100.00;102646.78;4999918;28;20535;-42
2023/12/15 07:34:43;;;;;;;92.05;27.30;;;;;;;3.64;100.00;102642.31;5004745;28;20211;-43
2023/12/15 07:37:09;;;;;;;93.50;29.75;;;;;;;3.67;100.00;102651.25;5002818;28;20269;-40
2023/12/15 07:39:34;;;;;;;98.03;28.63;;;;;;;3.68;100.00;102668.03;5001143;28;20228;-40
2023/12/15 07:42:00;;;;;;;100.15;28.38;;;;;;;3.67;100.00;102668.88;5000189;28;20205;-42
2023/12/15 07:44:25;;;;;;;100.90;28.60;;;;;;;3.67;100.00;102684.78;5001985;28;20177;-41
2023/12/15 07:46:53;;;;;;;104.05;29.38;;;;;;;3.66;100.00;102689.19;5004886;28;20200;-44
2023/12/15 07:49:19;;;;;;;88.60;27.17;;;;;;;3.66;100.00;102680.34;4996529;28;20668;-41
2023/12/15 07:51:45;;;;;;;98.72;27.17;;;;;;;3.71;100.00;102681.34;5000694;28;20259;-42
2023/12/15 07:54:11;;;;;;;116.82;30.25;;;;;;;3.66;100.00;102693.63;4997038;28;20185;-42
2023/12/15 07:56:36;;;;;;;103.78;29.73;;;;;;;3.67;100.00;102693.66;4997166;28;20181;-44
2023/12/15 07:59:02;;;;;;;113.88;34.28;;;;;;;3.69;100.00;102677.75;4999235;28;20182;-42
2023/12/15 08:01:27;;;;;;;109.85;35.15;;;;;;;3.68;100.00;102668.91;5012214;28;20201;-40
2023/12/15 08:03:53;;;;;;;110.50;34.95;;;;;;;3.71;100.00;102674.28;5002035;28;20176;-42
2023/12/15 08:06:19;;;;;;;93.85;33.80;;;;;;;3.73;100.00;102674.31;5001442;28;20274;-39
2023/12/15 08:08:46;;;;;;;125.30;36.45;;;;;;;3.69;100.00;102677.75;4996363;28;20205;-41
2023/12/15 08:11:13;;;;;;;113.97;35.40;;;;;;;3.72;100.00;102681.38;4997946;28;20598;-40
2023/12/15 08:13:39;;;;;;;109.93;34.55;;;;;;;3.71;100.00;102691.94;5000855;28;20276;-41
2023/12/15 08:16:06;;;;;;;103.78;32.28;;;;;;;3.71;100.00;102690.16;4998676;28;20189;-41
2023/12/15 08:18:31;;;;;;;109.30;33.88;;;;;;;3.77;100.00;102709.75;5001053;28;20177;-43
2023/12/15 08:20:58;;;;;;;109.97;30.85;;;;;;;3.77;100.00;102723.00;4996388;28;20626;-42
2023/12/15 08:23:24;;;;;;;112.15;32.05;;;;;;;3.85;100.00;102727.59;4999532;28;20679;-43
2023/12/15 08:25:49;;;;;;;99.63;31.02;;;;;;;3.83;100.00;102736.38;5000267;28;20189;-42
2023/12/15 08:28:15;;;;;;;104.00;31.10;;;;;;;3.82;100.00;102745.19;5001364;28;20239;-43
2023/12/15 08:30:41;;;;;;;106.38;30.02;;;;;;;3.86;100.00;102747.03;5002513;28;20184;-41
2023/12/15 08:33:07;;;;;;;103.90;30.75;;;;;;;3.84;100.00;102746.09;5002623;28;20212;-40
2023/12/15 08:35:32;;;;;;;102.07;28.63;;;;;;;3.89;100.00;102753.31;5003873;28;20186;-44
2023/12/15 08:37:58;;;;;;;98.18;28.60;;;;;;;3.92;100.00;102750.72;4997205;28;20616;-43
2023/12/15 08:40:24;;;;;;;107.10;29.35;;;;;;;3.93;100.00;102751.59;5001087;28;20244;-43
2023/12/15 08:42:50;;;;;;;110.72;28.52;;;;;;;3.96;100.00;102738.41;5004750;28;20609;-42
2023/12/15 08:45:16;;;;;;;98.00;28.45;;;;;;;4.01;100.00;102725.25;5002859;28;20182;-43
2023/12/15 08:47:42;;;;;;;99.97;27.98;;;;;;;4.06;100.00;102734.16;4996581;28;20209;-43
2023/12/15 08:50:07;;;;;;;107.95;29.15;;;;;;;4.08;100.00;102743.94;4998124;28;20235;-41
2023/12/15 08:52:33;;;;;;;102.07;28.00;;;;;;;4.11;100.00;102751.97;5006422;28;20208;-41
2023/12/15 08:54:58;;;;;;;88.55;26.65;;;;;;;4.21;100.00;102758.34;5007717;28;20182;-41
2023/12/15 08:57:24;;;;;;;112.07;29.88;;;;;;;4.20;100.00;102772.47;5001976;28;20203;-44
2023/12/15 08:59:49;;;;;;;103.07;29.08;;;;;;;4.21;100.00;102770.72;5004831;28;20238;-41
2023/12/15 09:02:15;;;;;;;105.47;28.23;;;;;;;4.23;100.00;102766.34;5004841;28;20291;-42
2023/12/15 09:04:41;;;;;;;107.55;28.58;;;;;;;4.23;100.00;102772.53;5004555;28;20195;-39
2023/12/15 09:07:07;;;;;;;93.15;27.60;;;;;;;4.25;100.00;102786.72;5004778;28;20698;-44
2023/12/15 09:09:34;;;;;;;101.07;28.27;;;;;;;4.26;100.00;102790.25;5004260;28;20216;-43
2023/12/15 09:12:00;;;;;;;97.28;25.70;;;;;;;4.28;100.00;102788.53;5005341;28;20273;-45
2023/12/15 09:14:27;;;;;;;103.78;26.83;;;;;;;4.28;100.00;102800.03;5003529;28;20577;-42
2023/12/15 09:16:54;;;;;;;94.90;25.17;;;;;;;4.34;100.00;102793.97;5006633;28;20185;-44
2023/12/15 09:19:20;;;;;;;92.78;24.58;;;;;;;4.40;100.00;102803.81;5004733;28;20264;-41
2023/12/15 09:21:46;;;;;;;86.90;24.67;;;;;;;4.42;100.00;102816.25;5005682;28;20212;-43
2023/12/15 09:24:14;;;;;;;86.82;24.48;;;;;;;4.45;100.00;102816.28;5007490;28;20191;-42
2023/12/15 09:26:42;;;;;;;84.03;22.30;;;;;;;4.46;100.00;102806.56;5003017;28;20270;-44
2023/12/15 09:29:08;;;;;;;87.80;22.25;;;;;;;4.49;100.00;102817.25;5001261;28;20188;-43
2023/12/15 09:31:34;;;;;;;88.20;23.98;;;;;;;4.49;100.00;102828.75;5008588;28;20642;-43
2023/12/15 09:34:00;;;;;;;90.20;23.73;;;;;;;4.53;100.00;102833.25;5007186;28;20196;-41
2023/12/15 09:36:26;;;;;;;80.43;21.75;;;;;;;4.59;100.00;102842.19;5005520;28;20181;-42
2023/12/15 09:38:52;;;;;;;90.70;22.75;;;;;;;4.62;100.00;102842.28;5003050;28;20555;-41
2023/12/15 09:41:18;;;;;;;89.05;24.05;;;;;;;4.61;100.00;102851.09;5008594;28;20210;-43
2023/12/15 09:43:44;;;;;;;82.55;23.13;;;;;;;4.61;100.00;102851.09;5002973;28;20203;-43
2023/12/15 09:46:11;;;;;;;85.25;22.52;;;;;;;4.66;100.00;102854.75;5000230;28;20698;-42
2023/12/15 09:48:36;;;;;;;87.65;21.70;;;;;;;4.71;100.00;102858.38;4999809;28;20296;-42
2023/12/15 09:51:07;;;;;;;70.13;20.52;;;;;;;4.75;100.00;102863.75;5002078;28;20431;-44
2023/12/15 09:53:37;;;;;;;85.47;20.35;;;;;;;4.78;100.00;102860.25;5009123;28;20185;-42
2023/12/15 09:56:04;;;;;;;74.50;21.00;;;;;;;4.81;100.00;102863.00;5004182;28;20266;-40
2023/12/15 09:58:29;;;;;;;95.53;21.38;;;;;;;4.81;100.00;102860.34;5003624;28;20554;-42
2023/12/15 10:00:54;;;;;;;77.13;19.75;;;;;;;4.86;100.00;102874.59;5001951;28;20222;-43
2023/12/15 10:03:20;;;;;;;91.97;20.45;;;;;;;4.88;100.00;102870.19;5006218;28;20189;-44
2023/12/15 10:05:46;;;;;;;82.03;19.75;;;;;;;4.89;100.00;102864.00;5006903;28;20271;-43
2023/12/15 10:08:12;;;;;;;69.50;19.27;;;;;;;4.95;100.00;102864.13;5003937;28;20682;-43
2023/12/15 10:10:38;;;;;;;81.25;20.13;;;;;;;4.94;100.00;102867.66;5004519;28;20259;-43
2023/12/15 10:13:04;;;;;;;67.13;20.02;;;;;;;5.00;100.00;102869.50;5006978;28;20290;-43
2023/12/15 10:15:29;;;;;;;85.63;20.15;;;;;;;5.01;100.00;102870.41;5007406;28;20655;-42
2023/12/15 10:17:55;;;;;;;83.75;19.73;;;;;;;5.02;100.00;102857.16;5001579;28;20188;-43
2023/12/15 10:20:20;;;;;;;72.57;19.48;;;;;;;5.10;100.00;102858.19;5008693;28;20185;-43
2023/12/15 10:22:47;;;;;;;72.07;19.08;;;;;;;5.16;100.00;102868.03;5007966;28;20200;-44
2023/12/15 10:25:19;;;;;;;85.40;18.92;;;;;;;5.19;100.00;102877.81;5005202;28;20271;-43
2023/12/15 10:27:44;;;;;;;72.50;16.67;;;;;;;5.21;100.00;102862.81;5004186;28;20200;-42
2023/12/15 10:30:10;;;;;;;75.20;19.77;;;;;;;5.25;100.00;102873.50;5004859;28;20164;-45
2023/12/15 10:32:36;;;;;;;69.40;18.10;;;;;;;5.28;100.00;102868.22;5003038;28;20204;-42
2023/12/15 10:35:01;;;;;;;75.10;19.25;;;;;;;5.31;100.00;102876.28;5007208;28;20185;-44
2023/12/15 10:37:27;;;;;;;68.95;17.83;;;;;;;5.36;100.00;102877.22;5003422;28;20512;-42
2023/12/15 10:39:54;;;;;;;78.65;18.02;;;;;;;5.37;100.00;102875.47;5003419;28;20225;-44
2023/12/15 10:42:23;;;;;;;71.00;18.85;;;;;;;5.43;100.00;102878.22;5002263;28;20221;-43
2023/12/15 10:44:51;;;;;;;76.18;18.10;;;;;;;5.45;100.00;102881.81;5000106;28;20268;-43
2023/12/15 10:47:18;;;;;;;72.20;17.58;;;;;;;5.45;100.00;102887.13;5002134;28;20204;-41
2023/12/15 10:49:46;;;;;;;73.32;16.35;;;;;;;5.48;100.00;102895.13;5005780;28;20504;-42
2023/12/15 10:52:15;;;;;;;77.22;17.08;;;;;;;5.54;100.00;102887.25;5007659;28;20201;-45
2023/12/15 10:54:42;;;;;;;65.53;16.05;;;;;;;5.58;100.00;102890.88;5006018;28;20632;-44
2023/12/15 10:57:10;;;;;;;67.80;18.23;;;;;;;5.60;100.00;102882.88;5002647;28;20184;-43
2023/12/15 10:59:39;;;;;;;60.42;15.02;;;;;;;5.68;100.00;102890.13;5000484;28;20172;-44
2023/12/15 11:02:07;;;;;;;64.63;15.90;;;;;;;5.70;100.00;102909.66;5006291;28;20192;-44